sensor_id;sensor_type;location;lat;lon;timestamp;temperature;humidity
15217;DHT22;7711;46.634;14.318;2022-07-30T00:00:31;18.00;99.90
15217;DHT22;7711;46.634;14.318;2022-07-30T00:02:59;18.00;99.90
15217;DHT22;7711;46.634;14.318;2022-07-30T00:05:27;18.00;99.90
15217;DHT22;7711;46.634;14.318;2022-07-30T00:07:54;18.00;99.90
15217;DHT22;7711;46.634;14.318;2022-07-30T00:10:22;17.90;99.90
15217;DHT22;7711;46.634;14.318;2022-07-30T00:12:49;17.90;99.90
15217;DHT22;7711;46.634;14.318;2022-07-30T00:15:16;18.00;99.90
15217;DHT22;7711;46.634;14.318;2022-07-30T00:17:43;18.00;99.90
15217;DHT22;7711;46.634;14.318;2022-07-30T00:20:11;18.00;99.90
15217;DHT22;7711;46.634;14.318;2022-07-30T00:22:42;18.10;99.90
15217;DHT22;7711;46.634;14.318;2022-07-30T00:25:09;18.00;99.90
15217;DHT22;7711;46.634;14.318;2022-07-30T00:27:36;18.00;99.90
15217;DHT22;7711;46.634;14.318;2022-07-30T00:30:04;18.10;99.90
15217;DHT22;7711;46.634;14.318;2022-07-30T00:32:31;18.10;99.90
15217;DHT22;7711;46.634;14.318;2022-07-30T00:35:01;18.00;99.90
15217;DHT22;7711;46.634;14.318;2022-07-30T00:37:28;18.00;99.90
15217;DHT22;7711;46.634;14.318;2022-07-30T00:39:57;18.00;99.90
15217;DHT22;7711;46.634;14.318;2022-07-30T00:42:36;18.00;99.90
15217;DHT22;7711;46.634;14.318;2022-07-30T00:45:06;18.10;99.90
15217;DHT22;7711;46.634;14.318;2022-07-30T00:47:34;18.00;99.90
15217;DHT22;7711;46.634;14.318;2022-07-30T00:50:01;18.10;99.90
15217;DHT22;7711;46.634;14.318;2022-07-30T00:52:29;18.00;99.90
15217;DHT22;7711;46.634;14.318;2022-07-30T00:54:59;18.00;99.90
15217;DHT22;7711;46.634;14.318;2022-07-30T00:57:27;17.90;99.90
15217;DHT22;7711;46.634;14.318;2022-07-30T00:59:54;18.00;99.90
15217;DHT22;7711;46.634;14.318;2022-07-30T01:02:22;18.00;99.90
15217;DHT22;7711;46.634;14.318;2022-07-30T01:04:52;17.90;99.90
15217;DHT22;7711;46.634;14.318;2022-07-30T01:07:22;17.90;99.90
15217;DHT22;7711;46.634;14.318;2022-07-30T01:09:49;17.80;99.90
15217;DHT22;7711;46.634;14.318;2022-07-30T01:12:19;17.90;99.90
15217;DHT22;7711;46.634;14.318;2022-07-30T01:14:49;18.00;99.90
15217;DHT22;7711;46.634;14.318;2022-07-30T01:17:19;18.00;99.90
15217;DHT22;7711;46.634;14.318;2022-07-30T01:19:47;17.90;99.90
15217;DHT22;7711;46.634;14.318;2022-07-30T01:22:34;17.90;99.90
15217;DHT22;7711;46.634;14.318;2022-07-30T01:25:11;17.80;99.90
15217;DHT22;7711;46.634;14.318;2022-07-30T01:27:44;17.90;99.90
15217;DHT22;7711;46.634;14.318;2022-07-30T01:30:16;17.90;99.90
15217;DHT22;7711;46.634;14.318;2022-07-30T01:32:45;17.90;99.90
15217;DHT22;7711;46.634;14.318;2022-07-30T01:35:13;17.90;99.90
15217;DHT22;7711;46.634;14.318;2022-07-30T01:37:43;17.90;99.90
15217;DHT22;7711;46.634;14.318;2022-07-30T01:40:12;17.90;99.90
15217;DHT22;7711;46.634;14.318;2022-07-30T01:42:42;17.90;99.90
15217;DHT22;7711;46.634;14.318;2022-07-30T01:45:11;17.90;99.90
15217;DHT22;7711;46.634;14.318;2022-07-30T01:47:40;17.80;99.90
15217;DHT22;7711;46.634;14.318;2022-07-30T01:50:10;17.80;99.90
15217;DHT22;7711;46.634;14.318;2022-07-30T01:52:41;17.90;99.90
15217;DHT22;7711;46.634;14.318;2022-07-30T01:55:13;17.90;99.90
15217;DHT22;7711;46.634;14.318;2022-07-30T01:57:43;17.90;99.90
15217;DHT22;7711;46.634;14.318;2022-07-30T02:00:11;17.90;99.90
15217;DHT22;7711;46.634;14.318;2022-07-30T02:02:39;17.90;99.90
15217;DHT22;7711;46.634;14.318;2022-07-30T02:05:07;18.00;99.90
15217;DHT22;7711;46.634;14.318;2022-07-30T02:07:39;17.90;99.90
15217;DHT22;7711;46.634;14.318;2022-07-30T02:10:13;17.90;99.90
15217;DHT22;7711;46.634;14.318;2022-07-30T02:12:55;17.90;99.90
15217;DHT22;7711;46.634;14.318;2022-07-30T02:15:24;17.90;99.90
15217;DHT22;7711;46.634;14.318;2022-07-30T02:17:59;17.90;99.90
15217;DHT22;7711;46.634;14.318;2022-07-30T02:20:28;17.90;99.90
15217;DHT22;7711;46.634;14.318;2022-07-30T02:23:00;17.90;99.90
15217;DHT22;7711;46.634;14.318;2022-07-30T02:25:31;17.80;99.90
15217;DHT22;7711;46.634;14.318;2022-07-30T02:28:04;17.90;99.90
15217;DHT22;7711;46.634;14.318;2022-07-30T02:30:35;17.90;99.90
15217;DHT22;7711;46.634;14.318;2022-07-30T02:33:06;17.80;99.90
15217;DHT22;7711;46.634;14.318;2022-07-30T02:35:36;17.80;99.90
15217;DHT22;7711;46.634;14.318;2022-07-30T02:38:04;17.80;99.90
15217;DHT22;7711;46.634;14.318;2022-07-30T02:40:32;17.80;99.90
15217;DHT22;7711;46.634;14.318;2022-07-30T02:43:01;17.80;99.90
15217;DHT22;7711;46.634;14.318;2022-07-30T02:45:32;17.80;99.90
15217;DHT22;7711;46.634;14.318;2022-07-30T02:48:03;17.80;99.90
15217;DHT22;7711;46.634;14.318;2022-07-30T02:50:33;17.90;99.90
15217;DHT22;7711;46.634;14.318;2022-07-30T02:53:02;17.80;99.90
15217;DHT22;7711;46.634;14.318;2022-07-30T02:55:32;17.80;99.90
15217;DHT22;7711;46.634;14.318;2022-07-30T02:58:02;17.80;99.90
15217;DHT22;7711;46.634;14.318;2022-07-30T03:00:30;17.70;99.90
15217;DHT22;7711;46.634;14.318;2022-07-30T03:02:58;17.70;99.90
15217;DHT22;7711;46.634;14.318;2022-07-30T03:05:26;17.80;99.90
15217;DHT22;7711;46.634;14.318;2022-07-30T03:07:55;17.80;99.90
15217;DHT22;7711;46.634;14.318;2022-07-30T03:10:24;17.80;99.90
15217;DHT22;7711;46.634;14.318;2022-07-30T03:12:52;17.90;99.90
15217;DHT22;7711;46.634;14.318;2022-07-30T03:15:24;17.90;99.90
15217;DHT22;7711;46.634;14.318;2022-07-30T03:17:52;17.80;99.90
15217;DHT22;7711;46.634;14.318;2022-07-30T03:20:22;17.80;99.90
15217;DHT22;7711;46.634;14.318;2022-07-30T03:22:58;17.90;99.90
15217;DHT22;7711;46.634;14.318;2022-07-30T03:25:27;17.90;99.90
15217;DHT22;7711;46.634;14.318;2022-07-30T03:27:56;17.80;99.90
15217;DHT22;7711;46.634;14.318;2022-07-30T03:30:27;17.70;99.90
15217;DHT22;7711;46.634;14.318;2022-07-30T03:32:55;17.70;99.90
15217;DHT22;7711;46.634;14.318;2022-07-30T03:35:23;17.80;99.90
15217;DHT22;7711;46.634;14.318;2022-07-30T03:37:52;17.80;99.90
15217;DHT22;7711;46.634;14.318;2022-07-30T03:40:20;17.80;99.90
15217;DHT22;7711;46.634;14.318;2022-07-30T03:42:48;17.80;99.90
15217;DHT22;7711;46.634;14.318;2022-07-30T03:45:18;17.70;99.90
15217;DHT22;7711;46.634;14.318;2022-07-30T03:47:47;17.80;99.90
15217;DHT22;7711;46.634;14.318;2022-07-30T03:50:17;17.70;99.90
15217;DHT22;7711;46.634;14.318;2022-07-30T03:52:44;17.70;99.90
15217;DHT22;7711;46.634;14.318;2022-07-30T03:55:12;17.70;99.90
15217;DHT22;7711;46.634;14.318;2022-07-30T03:57:39;17.70;99.90
15217;DHT22;7711;46.634;14.318;2022-07-30T04:00:12;17.70;99.90
15217;DHT22;7711;46.634;14.318;2022-07-30T04:02:40;17.70;99.90
15217;DHT22;7711;46.634;14.318;2022-07-30T04:05:10;17.70;99.90
15217;DHT22;7711;46.634;14.318;2022-07-30T04:07:41;17.70;99.90
15217;DHT22;7711;46.634;14.318;2022-07-30T04:10:09;17.80;99.90
15217;DHT22;7711;46.634;14.318;2022-07-30T04:12:36;17.80;99.90
15217;DHT22;7711;46.634;14.318;2022-07-30T04:15:03;17.80;99.90
15217;DHT22;7711;46.634;14.318;2022-07-30T04:17:35;17.70;99.90
15217;DHT22;7711;46.634;14.318;2022-07-30T04:20:07;17.80;99.90
15217;DHT22;7711;46.634;14.318;2022-07-30T04:22:37;17.80;99.90
15217;DHT22;7711;46.634;14.318;2022-07-30T04:25:08;17.80;99.90
15217;DHT22;7711;46.634;14.318;2022-07-30T04:27:36;17.80;99.90
15217;DHT22;7711;46.634;14.318;2022-07-30T04:30:05;17.80;99.90
15217;DHT22;7711;46.634;14.318;2022-07-30T04:32:35;17.80;99.90
15217;DHT22;7711;46.634;14.318;2022-07-30T04:35:03;17.70;99.90
15217;DHT22;7711;46.634;14.318;2022-07-30T04:37:31;17.80;99.90
15217;DHT22;7711;46.634;14.318;2022-07-30T04:40:00;17.80;99.90
15217;DHT22;7711;46.634;14.318;2022-07-30T04:42:28;17.70;99.90
15217;DHT22;7711;46.634;14.318;2022-07-30T04:44:56;17.70;99.90
15217;DHT22;7711;46.634;14.318;2022-07-30T04:47:25;17.70;99.90
15217;DHT22;7711;46.634;14.318;2022-07-30T04:49:58;17.70;99.90
15217;DHT22;7711;46.634;14.318;2022-07-30T04:52:26;17.70;99.90
15217;DHT22;7711;46.634;14.318;2022-07-30T04:55:01;17.80;99.90
15217;DHT22;7711;46.634;14.318;2022-07-30T04:57:30;17.80;99.90
15217;DHT22;7711;46.634;14.318;2022-07-30T04:59:57;17.70;99.90
15217;DHT22;7711;46.634;14.318;2022-07-30T05:02:28;17.80;99.90
15217;DHT22;7711;46.634;14.318;2022-07-30T05:05:01;17.80;99.90
15217;DHT22;7711;46.634;14.318;2022-07-30T05:07:31;17.70;99.90
15217;DHT22;7711;46.634;14.318;2022-07-30T05:10:00;17.70;99.90
15217;DHT22;7711;46.634;14.318;2022-07-30T05:12:37;17.60;99.90
15217;DHT22;7711;46.634;14.318;2022-07-30T05:15:05;17.70;99.90
15217;DHT22;7711;46.634;14.318;2022-07-30T05:17:32;17.70;99.90
15217;DHT22;7711;46.634;14.318;2022-07-30T05:19:59;17.70;99.90
15217;DHT22;7711;46.634;14.318;2022-07-30T05:22:27;17.70;99.90
15217;DHT22;7711;46.634;14.318;2022-07-30T05:25:00;17.70;99.90
15217;DHT22;7711;46.634;14.318;2022-07-30T05:27:28;17.70;99.90
15217;DHT22;7711;46.634;14.318;2022-07-30T05:29:56;17.70;99.90
15217;DHT22;7711;46.634;14.318;2022-07-30T05:32:23;17.80;99.90
15217;DHT22;7711;46.634;14.318;2022-07-30T05:34:52;17.80;99.90
15217;DHT22;7711;46.634;14.318;2022-07-30T05:37:21;17.80;99.90
15217;DHT22;7711;46.634;14.318;2022-07-30T05:39:48;18.00;99.90
15217;DHT22;7711;46.634;14.318;2022-07-30T05:42:17;17.90;99.90
15217;DHT22;7711;46.634;14.318;2022-07-30T05:44:44;18.00;99.90
15217;DHT22;7711;46.634;14.318;2022-07-30T05:47:11;18.10;99.90
15217;DHT22;7711;46.634;14.318;2022-07-30T05:49:39;18.10;99.90
15217;DHT22;7711;46.634;14.318;2022-07-30T05:52:06;18.20;99.90
15217;DHT22;7711;46.634;14.318;2022-07-30T05:54:33;18.30;99.90
15217;DHT22;7711;46.634;14.318;2022-07-30T05:57:00;18.10;99.90
15217;DHT22;7711;46.634;14.318;2022-07-30T05:59:47;18.20;99.90
15217;DHT22;7711;46.634;14.318;2022-07-30T06:02:15;18.10;99.90
15217;DHT22;7711;46.634;14.318;2022-07-30T06:04:42;18.10;99.90
15217;DHT22;7711;46.634;14.318;2022-07-30T06:07:09;18.10;99.90
15217;DHT22;7711;46.634;14.318;2022-07-30T06:09:36;18.10;99.90
15217;DHT22;7711;46.634;14.318;2022-07-30T06:12:04;18.20;99.90
15217;DHT22;7711;46.634;14.318;2022-07-30T06:14:31;18.10;99.90
15217;DHT22;7711;46.634;14.318;2022-07-30T06:17:03;18.10;99.90
15217;DHT22;7711;46.634;14.318;2022-07-30T06:19:30;18.10;99.90
15217;DHT22;7711;46.634;14.318;2022-07-30T06:21:59;18.10;99.90
15217;DHT22;7711;46.634;14.318;2022-07-30T06:24:26;18.20;99.90
15217;DHT22;7711;46.634;14.318;2022-07-30T06:26:53;18.20;99.90
15217;DHT22;7711;46.634;14.318;2022-07-30T06:29:20;18.20;99.90
15217;DHT22;7711;46.634;14.318;2022-07-30T06:31:47;18.20;99.90
15217;DHT22;7711;46.634;14.318;2022-07-30T06:34:16;18.20;99.90
15217;DHT22;7711;46.634;14.318;2022-07-30T06:36:43;18.10;99.90
15217;DHT22;7711;46.634;14.318;2022-07-30T06:39:10;18.20;99.90
15217;DHT22;7711;46.634;14.318;2022-07-30T06:41:39;18.20;99.90
15217;DHT22;7711;46.634;14.318;2022-07-30T06:44:07;18.20;99.90
15217;DHT22;7711;46.634;14.318;2022-07-30T06:46:34;18.10;99.90
15217;DHT22;7711;46.634;14.318;2022-07-30T06:49:01;18.20;99.90
15217;DHT22;7711;46.634;14.318;2022-07-30T06:51:30;18.30;99.90
15217;DHT22;7711;46.634;14.318;2022-07-30T06:53:57;18.40;99.90
15217;DHT22;7711;46.634;14.318;2022-07-30T06:56:24;18.50;99.90
15217;DHT22;7711;46.634;14.318;2022-07-30T06:58:51;18.40;99.90
15217;DHT22;7711;46.634;14.318;2022-07-30T07:01:18;18.60;99.90
15217;DHT22;7711;46.634;14.318;2022-07-30T07:03:48;18.60;99.90
15217;DHT22;7711;46.634;14.318;2022-07-30T07:06:15;18.70;99.90
15217;DHT22;7711;46.634;14.318;2022-07-30T07:08:44;18.70;99.90
15217;DHT22;7711;46.634;14.318;2022-07-30T07:11:12;18.90;99.90
15217;DHT22;7711;46.634;14.318;2022-07-30T07:13:39;19.00;99.90
15217;DHT22;7711;46.634;14.318;2022-07-30T07:16:07;19.10;99.90
15217;DHT22;7711;46.634;14.318;2022-07-30T07:18:34;19.30;99.90
15217;DHT22;7711;46.634;14.318;2022-07-30T07:21:01;19.20;99.90
15217;DHT22;7711;46.634;14.318;2022-07-30T07:23:31;19.40;99.90
15217;DHT22;7711;46.634;14.318;2022-07-30T07:26:00;19.40;99.90
15217;DHT22;7711;46.634;14.318;2022-07-30T07:28:29;19.40;99.90
15217;DHT22;7711;46.634;14.318;2022-07-30T07:30:57;19.50;99.90
15217;DHT22;7711;46.634;14.318;2022-07-30T07:33:24;19.40;99.90
15217;DHT22;7711;46.634;14.318;2022-07-30T07:35:55;19.50;99.90
15217;DHT22;7711;46.634;14.318;2022-07-30T07:38:22;19.20;99.90
15217;DHT22;7711;46.634;14.318;2022-07-30T07:40:49;19.40;99.90
15217;DHT22;7711;46.634;14.318;2022-07-30T07:43:18;19.40;99.90
15217;DHT22;7711;46.634;14.318;2022-07-30T07:45:45;19.50;99.90
15217;DHT22;7711;46.634;14.318;2022-07-30T07:48:14;19.50;99.90
15217;DHT22;7711;46.634;14.318;2022-07-30T07:50:41;19.50;99.90
15217;DHT22;7711;46.634;14.318;2022-07-30T07:53:08;19.70;99.90
15217;DHT22;7711;46.634;14.318;2022-07-30T07:55:43;19.70;99.90
15217;DHT22;7711;46.634;14.318;2022-07-30T07:58:10;19.50;99.90
15217;DHT22;7711;46.634;14.318;2022-07-30T08:00:40;19.50;99.90
15217;DHT22;7711;46.634;14.318;2022-07-30T08:03:07;19.30;99.90
15217;DHT22;7711;46.634;14.318;2022-07-30T08:05:35;19.30;99.90
15217;DHT22;7711;46.634;14.318;2022-07-30T08:08:02;19.50;99.90
15217;DHT22;7711;46.634;14.318;2022-07-30T08:10:30;19.70;99.90
15217;DHT22;7711;46.634;14.318;2022-07-30T08:12:57;19.70;99.90
15217;DHT22;7711;46.634;14.318;2022-07-30T08:15:30;19.60;99.90
15217;DHT22;7711;46.634;14.318;2022-07-30T08:17:58;19.50;99.90
15217;DHT22;7711;46.634;14.318;2022-07-30T08:20:25;19.50;99.90
15217;DHT22;7711;46.634;14.318;2022-07-30T08:22:52;19.70;99.90
15217;DHT22;7711;46.634;14.318;2022-07-30T08:25:21;19.60;99.90
15217;DHT22;7711;46.634;14.318;2022-07-30T08:27:48;19.30;99.90
15217;DHT22;7711;46.634;14.318;2022-07-30T08:30:18;19.20;99.90
15217;DHT22;7711;46.634;14.318;2022-07-30T08:32:45;19.20;99.90
15217;DHT22;7711;46.634;14.318;2022-07-30T08:35:14;19.20;99.90
15217;DHT22;7711;46.634;14.318;2022-07-30T08:37:41;19.60;99.90
15217;DHT22;7711;46.634;14.318;2022-07-30T08:40:10;19.90;99.90
15217;DHT22;7711;46.634;14.318;2022-07-30T08:42:37;20.20;99.90
15217;DHT22;7711;46.634;14.318;2022-07-30T08:45:06;20.10;99.90
15217;DHT22;7711;46.634;14.318;2022-07-30T08:47:35;20.20;99.90
15217;DHT22;7711;46.634;14.318;2022-07-30T08:50:03;20.10;99.90
15217;DHT22;7711;46.634;14.318;2022-07-30T08:52:35;20.30;99.90
15217;DHT22;7711;46.634;14.318;2022-07-30T08:55:04;20.30;99.90
15217;DHT22;7711;46.634;14.318;2022-07-30T08:57:34;20.20;99.90
15217;DHT22;7711;46.634;14.318;2022-07-30T09:00:06;20.20;99.90
15217;DHT22;7711;46.634;14.318;2022-07-30T09:02:34;20.10;99.90
15217;DHT22;7711;46.634;14.318;2022-07-30T09:05:05;20.10;99.90
15217;DHT22;7711;46.634;14.318;2022-07-30T09:07:34;20.20;99.90
15217;DHT22;7711;46.634;14.318;2022-07-30T09:10:02;20.50;99.90
15217;DHT22;7711;46.634;14.318;2022-07-30T09:12:33;20.50;99.90
15217;DHT22;7711;46.634;14.318;2022-07-30T09:15:09;20.50;99.90
15217;DHT22;7711;46.634;14.318;2022-07-30T09:17:52;20.50;99.90
15217;DHT22;7711;46.634;14.318;2022-07-30T09:20:20;20.30;99.90
15217;DHT22;7711;46.634;14.318;2022-07-30T09:22:50;20.70;99.90
15217;DHT22;7711;46.634;14.318;2022-07-30T09:25:32;20.70;99.90
15217;DHT22;7711;46.634;14.318;2022-07-30T09:28:00;20.70;99.90
15217;DHT22;7711;46.634;14.318;2022-07-30T09:30:33;20.70;99.90
15217;DHT22;7711;46.634;14.318;2022-07-30T09:33:08;20.60;99.90
15217;DHT22;7711;46.634;14.318;2022-07-30T09:35:39;20.70;99.90
15217;DHT22;7711;46.634;14.318;2022-07-30T09:38:08;20.60;99.90
15217;DHT22;7711;46.634;14.318;2022-07-30T09:40:36;20.40;99.90
15217;DHT22;7711;46.634;14.318;2022-07-30T09:43:05;20.60;99.90
15217;DHT22;7711;46.634;14.318;2022-07-30T09:45:33;20.80;99.90
15217;DHT22;7711;46.634;14.318;2022-07-30T09:48:01;20.90;99.90
15217;DHT22;7711;46.634;14.318;2022-07-30T09:50:28;20.90;99.90
15217;DHT22;7711;46.634;14.318;2022-07-30T09:53:05;21.00;99.90
15217;DHT22;7711;46.634;14.318;2022-07-30T09:55:35;21.30;99.90
15217;DHT22;7711;46.634;14.318;2022-07-30T09:58:04;21.20;99.90
15217;DHT22;7711;46.634;14.318;2022-07-30T10:00:33;21.30;99.90
15217;DHT22;7711;46.634;14.318;2022-07-30T10:03:13;21.20;99.90
15217;DHT22;7711;46.634;14.318;2022-07-30T10:05:49;21.20;99.90
15217;DHT22;7711;46.634;14.318;2022-07-30T10:08:17;21.40;99.90
15217;DHT22;7711;46.634;14.318;2022-07-30T10:10:46;21.30;99.90
15217;DHT22;7711;46.634;14.318;2022-07-30T10:13:15;21.30;99.90
15217;DHT22;7711;46.634;14.318;2022-07-30T10:15:48;21.50;99.90
15217;DHT22;7711;46.634;14.318;2022-07-30T10:18:17;21.80;99.90
15217;DHT22;7711;46.634;14.318;2022-07-30T10:20:45;22.20;99.90
15217;DHT22;7711;46.634;14.318;2022-07-30T10:23:12;22.30;99.90
15217;DHT22;7711;46.634;14.318;2022-07-30T10:25:39;22.60;99.90
15217;DHT22;7711;46.634;14.318;2022-07-30T10:28:08;22.80;99.90
15217;DHT22;7711;46.634;14.318;2022-07-30T10:30:36;22.60;99.90
15217;DHT22;7711;46.634;14.318;2022-07-30T10:33:03;22.50;99.90
15217;DHT22;7711;46.634;14.318;2022-07-30T10:35:30;22.70;99.90
15217;DHT22;7711;46.634;14.318;2022-07-30T10:37:58;22.50;99.90
15217;DHT22;7711;46.634;14.318;2022-07-30T10:40:30;22.60;99.90
15217;DHT22;7711;46.634;14.318;2022-07-30T10:43:32;22.70;99.90
15217;DHT22;7711;46.634;14.318;2022-07-30T10:46:11;22.90;99.90
15217;DHT22;7711;46.634;14.318;2022-07-30T10:48:40;22.90;99.90
15217;DHT22;7711;46.634;14.318;2022-07-30T10:51:08;22.70;99.90
15217;DHT22;7711;46.634;14.318;2022-07-30T10:53:37;23.40;99.90
15217;DHT22;7711;46.634;14.318;2022-07-30T10:56:13;23.30;99.90
15217;DHT22;7711;46.634;14.318;2022-07-30T10:59:00;23.10;99.90
15217;DHT22;7711;46.634;14.318;2022-07-30T11:04:35;23.60;99.90
15217;DHT22;7711;46.634;14.318;2022-07-30T11:07:28;23.40;99.90
15217;DHT22;7711;46.634;14.318;2022-07-30T11:09:58;23.40;99.90
15217;DHT22;7711;46.634;14.318;2022-07-30T11:12:51;23.10;99.90
15217;DHT22;7711;46.634;14.318;2022-07-30T11:15:20;23.20;99.90
15217;DHT22;7711;46.634;14.318;2022-07-30T11:17:59;23.20;99.90
15217;DHT22;7711;46.634;14.318;2022-07-30T11:20:30;23.00;99.90
15217;DHT22;7711;46.634;14.318;2022-07-30T11:23:12;23.10;99.90
15217;DHT22;7711;46.634;14.318;2022-07-30T11:26:00;22.90;99.90
15217;DHT22;7711;46.634;14.318;2022-07-30T11:28:43;23.30;99.90
15217;DHT22;7711;46.634;14.318;2022-07-30T11:31:29;23.80;99.90
15217;DHT22;7711;46.634;14.318;2022-07-30T11:34:25;24.00;99.90
15217;DHT22;7711;46.634;14.318;2022-07-30T11:37:09;24.30;99.90
15217;DHT22;7711;46.634;14.318;2022-07-30T11:40:10;23.90;99.90
15217;DHT22;7711;46.634;14.318;2022-07-30T11:42:39;23.80;99.90
15217;DHT22;7711;46.634;14.318;2022-07-30T11:45:23;23.90;99.90
15217;DHT22;7711;46.634;14.318;2022-07-30T11:47:58;24.00;99.90
15217;DHT22;7711;46.634;14.318;2022-07-30T11:50:30;24.10;99.90
15217;DHT22;7711;46.634;14.318;2022-07-30T11:53:00;23.90;99.90
15217;DHT22;7711;46.634;14.318;2022-07-30T11:55:29;24.30;99.90
15217;DHT22;7711;46.634;14.318;2022-07-30T11:57:58;24.60;99.90
15217;DHT22;7711;46.634;14.318;2022-07-30T12:00:33;25.30;99.90
15217;DHT22;7711;46.634;14.318;2022-07-30T12:03:08;25.80;99.90
15217;DHT22;7711;46.634;14.318;2022-07-30T12:05:36;25.10;99.90
15217;DHT22;7711;46.634;14.318;2022-07-30T12:08:04;25.40;99.90
15217;DHT22;7711;46.634;14.318;2022-07-30T12:10:31;25.90;99.90
15217;DHT22;7711;46.634;14.318;2022-07-30T12:13:08;25.80;99.90
15217;DHT22;7711;46.634;14.318;2022-07-30T12:15:38;26.40;99.90
15217;DHT22;7711;46.634;14.318;2022-07-30T12:18:07;26.20;99.90
15217;DHT22;7711;46.634;14.318;2022-07-30T12:20:37;25.50;99.90
15217;DHT22;7711;46.634;14.318;2022-07-30T12:23:09;25.60;99.90
15217;DHT22;7711;46.634;14.318;2022-07-30T12:25:38;26.10;99.90
15217;DHT22;7711;46.634;14.318;2022-07-30T12:28:05;26.60;99.90
15217;DHT22;7711;46.634;14.318;2022-07-30T12:30:37;26.80;99.90
15217;DHT22;7711;46.634;14.318;2022-07-30T12:33:05;26.70;99.90
15217;DHT22;7711;46.634;14.318;2022-07-30T12:35:43;26.80;99.90
15217;DHT22;7711;46.634;14.318;2022-07-30T12:38:11;26.60;99.90
15217;DHT22;7711;46.634;14.318;2022-07-30T12:40:57;26.40;99.90
15217;DHT22;7711;46.634;14.318;2022-07-30T12:43:44;26.30;99.90
15217;DHT22;7711;46.634;14.318;2022-07-30T12:46:14;25.40;99.90
15217;DHT22;7711;46.634;14.318;2022-07-30T12:48:49;25.10;99.90
15217;DHT22;7711;46.634;14.318;2022-07-30T12:51:18;25.50;99.90
15217;DHT22;7711;46.634;14.318;2022-07-30T12:53:46;25.90;99.90
15217;DHT22;7711;46.634;14.318;2022-07-30T12:56:16;26.00;99.90
15217;DHT22;7711;46.634;14.318;2022-07-30T12:58:44;25.50;99.90
15217;DHT22;7711;46.634;14.318;2022-07-30T13:01:13;25.50;99.90
15217;DHT22;7711;46.634;14.318;2022-07-30T13:03:41;25.40;99.90
15217;DHT22;7711;46.634;14.318;2022-07-30T13:06:18;25.40;99.90
15217;DHT22;7711;46.634;14.318;2022-07-30T13:08:51;25.10;99.90
15217;DHT22;7711;46.634;14.318;2022-07-30T13:11:19;24.90;99.90
15217;DHT22;7711;46.634;14.318;2022-07-30T13:13:47;24.70;99.90
15217;DHT22;7711;46.634;14.318;2022-07-30T13:16:17;24.80;99.90
15217;DHT22;7711;46.634;14.318;2022-07-30T13:18:45;24.70;99.90
15217;DHT22;7711;46.634;14.318;2022-07-30T13:21:14;25.00;99.90
15217;DHT22;7711;46.634;14.318;2022-07-30T13:23:43;25.00;99.90
15217;DHT22;7711;46.634;14.318;2022-07-30T13:26:12;26.00;99.90
15217;DHT22;7711;46.634;14.318;2022-07-30T13:28:41;25.80;99.90
15217;DHT22;7711;46.634;14.318;2022-07-30T13:31:10;26.00;99.90
15217;DHT22;7711;46.634;14.318;2022-07-30T13:33:39;27.70;99.90
15217;DHT22;7711;46.634;14.318;2022-07-30T13:36:07;26.70;99.90
15217;DHT22;7711;46.634;14.318;2022-07-30T13:38:34;26.40;99.90
15217;DHT22;7711;46.634;14.318;2022-07-30T13:41:03;26.00;99.90
15217;DHT22;7711;46.634;14.318;2022-07-30T13:43:33;26.50;99.90
15217;DHT22;7711;46.634;14.318;2022-07-30T13:46:00;27.40;99.90
15217;DHT22;7711;46.634;14.318;2022-07-30T13:48:31;26.80;99.90
15217;DHT22;7711;46.634;14.318;2022-07-30T13:50:59;26.30;99.90
15217;DHT22;7711;46.634;14.318;2022-07-30T13:53:26;26.20;99.90
15217;DHT22;7711;46.634;14.318;2022-07-30T13:55:54;26.00;99.90
15217;DHT22;7711;46.634;14.318;2022-07-30T13:58:23;26.60;99.90
15217;DHT22;7711;46.634;14.318;2022-07-30T14:00:50;27.10;99.90
15217;DHT22;7711;46.634;14.318;2022-07-30T14:03:20;27.40;99.90
15217;DHT22;7711;46.634;14.318;2022-07-30T14:05:50;27.80;99.90
15217;DHT22;7711;46.634;14.318;2022-07-30T14:08:18;28.80;99.90
15217;DHT22;7711;46.634;14.318;2022-07-30T14:10:47;28.90;99.90
15217;DHT22;7711;46.634;14.318;2022-07-30T14:13:14;29.10;99.90
15217;DHT22;7711;46.634;14.318;2022-07-30T14:15:43;29.50;99.90
15217;DHT22;7711;46.634;14.318;2022-07-30T14:18:10;30.70;99.20
15217;DHT22;7711;46.634;14.318;2022-07-30T14:20:37;30.80;97.30
15217;DHT22;7711;46.634;14.318;2022-07-30T14:23:05;31.40;97.40
15217;DHT22;7711;46.634;14.318;2022-07-30T14:25:32;32.20;96.90
15217;DHT22;7711;46.634;14.318;2022-07-30T14:27:59;32.10;93.40
15217;DHT22;7711;46.634;14.318;2022-07-30T14:30:26;32.30;92.00
15217;DHT22;7711;46.634;14.318;2022-07-30T14:32:56;32.30;89.00
15217;DHT22;7711;46.634;14.318;2022-07-30T14:35:25;30.90;90.80
15217;DHT22;7711;46.634;14.318;2022-07-30T14:37:54;29.30;91.70
15217;DHT22;7711;46.634;14.318;2022-07-30T14:40:24;29.30;92.40
15217;DHT22;7711;46.634;14.318;2022-07-30T14:42:53;29.30;93.10
15217;DHT22;7711;46.634;14.318;2022-07-30T14:45:20;29.70;93.80
15217;DHT22;7711;46.634;14.318;2022-07-30T14:47:47;29.40;93.20
15217;DHT22;7711;46.634;14.318;2022-07-30T14:50:17;30.20;92.30
15217;DHT22;7711;46.634;14.318;2022-07-30T14:52:45;29.70;91.00
15217;DHT22;7711;46.634;14.318;2022-07-30T14:55:13;29.40;91.10
15217;DHT22;7711;46.634;14.318;2022-07-30T14:57:43;29.80;90.70
15217;DHT22;7711;46.634;14.318;2022-07-30T15:00:11;29.70;90.70
15217;DHT22;7711;46.634;14.318;2022-07-30T15:02:39;29.50;89.80
15217;DHT22;7711;46.634;14.318;2022-07-30T15:05:09;30.40;90.90
15217;DHT22;7711;46.634;14.318;2022-07-30T15:07:37;30.00;86.70
15217;DHT22;7711;46.634;14.318;2022-07-30T15:10:05;30.20;88.70
15217;DHT22;7711;46.634;14.318;2022-07-30T15:12:34;30.50;86.30
15217;DHT22;7711;46.634;14.318;2022-07-30T15:15:03;30.10;84.50
15217;DHT22;7711;46.634;14.318;2022-07-30T15:17:30;30.70;85.10
15217;DHT22;7711;46.634;14.318;2022-07-30T15:19:59;30.20;83.60
15217;DHT22;7711;46.634;14.318;2022-07-30T15:22:28;30.10;82.70
15217;DHT22;7711;46.634;14.318;2022-07-30T15:24:57;30.50;85.10
15217;DHT22;7711;46.634;14.318;2022-07-30T15:27:24;31.90;84.10
15217;DHT22;7711;46.634;14.318;2022-07-30T15:29:53;29.80;81.00
15217;DHT22;7711;46.634;14.318;2022-07-30T15:32:21;30.70;82.90
15217;DHT22;7711;46.634;14.318;2022-07-30T15:34:48;30.20;80.40
15217;DHT22;7711;46.634;14.318;2022-07-30T15:37:15;29.80;83.20
15217;DHT22;7711;46.634;14.318;2022-07-30T15:39:43;30.30;82.90
15217;DHT22;7711;46.634;14.318;2022-07-30T15:42:13;31.30;80.40
15217;DHT22;7711;46.634;14.318;2022-07-30T15:44:40;30.20;81.10
15217;DHT22;7711;46.634;14.318;2022-07-30T15:47:07;29.90;80.10
15217;DHT22;7711;46.634;14.318;2022-07-30T15:49:34;29.80;80.80